Mauston, WI

3:57 AM CST on December 05, 2016 (GMT -0600)
Juneau County Weather | | Change Station

Elev 873 ft 43.80 °N, 90.07 °W | Updated 14 seconds ago

Overcast
Overcast
34.1 °F
Feels Like 34 °F
N
2.3
Wind Variable Wind from WSW
Gusts 20.7 mph

Today
High -- | Low -- °F
--% Chance of Precip.
Yesterday
High -- | Low -- °F
Precip. -- in
Pressure 29.90 in
Visibility 10.0 miles
Clouds Overcast 1400 ft
Windchill 34 °F
Dew Point 33 °F
Humidity 95%
Rainfall 0.00 in
Snow Depth Not available.
7:19 AM 4:23 PM
Waxing Crescent, 30% visible
METAR KVOK 050858Z AUTO 23009KT 10SM OVC014 01/00 A2986 RMK AO2 SLP124 T00131002 52016
Pressure 29.90 in
Visibility 10.0 miles
Clouds Overcast 1400 ft
Windchill 34 °F
Dew Point 33 °F
Humidity 95%
Rainfall 0.00 in
Snow Depth Not available.
7:19 AM 4:23 PM
Waxing Crescent, 30% visible
METAR KVOK 050858Z AUTO 23009KT 10SM OVC014 01/00 A2986 RMK AO2 SLP124 T00131002 52016

10-Day Weather Forecast

Almanac

Astronomy

Dec. 05, 2016 Rise Set
Actual Time
Civil Twilight
Nautical Twilight
Astronomical Twilight
Moon
Length of Visible Light
Length of Day
Tomorrow will be .
, % of the Moon is Illuminated

Today's Extremes

State Highs State Lows

Community

WunderPhotos

Upload Photos

1,955,775 photos uploaded!

WunderBlog® & News

Nearby

Air Quality

  Air Quality AQ Index Pollutant
Not available.

Snow Depth

Station Depth Elevation

Earthquake Activity

City Distance Mag. Time & Date
Minimum magnitude displayed is 2.5.

Coastal Water Temperatures

Place Temperature

Stations

Nearby Weather Stations

Station Location Temp. Windchill Dew Point Humidity Wind Precip. Elev Updated Type
                   

Watches & Warnings

There are currently no watches in effect.